Time;durP1;ratioP1;P1;durP2;ratioP2;P2;SDS_P1;SDS_P2;PMS_P1;PMS_P2;Temp;Humidity;BMP_temperature;BMP_pressure;BME280_temperature;BME280_humidity;BME280_pressure;Samples;Min_cycle;Max_cycle;Signal;HPM_P1;HPM_P2
2022/06/02 05:50:44;;;;;;;;;;;;;;;18.28;79.78;97013.81;4265644;27;10340;-71
2022/06/02 05:52:57;;;;;;;;;;;;;;;18.55;79.38;97009.53;4249176;27;5657;-69
2022/06/02 05:55:25;;;;;;;;;;;;;;;18.78;79.27;96997.13;4247386;27;5670;-69
2022/06/02 05:57:36;;;;;;;;;;;;;;;18.96;78.72;96991.56;4249035;27;5748;-69
2022/06/02 06:00:03;;;;;;;;;;;;;;;19.11;78.70;96997.19;4248896;27;5653;-69
2022/06/02 06:02:28;;;;;;;;;;;;;;;19.27;78.00;96989.41;4248754;27;5653;-69
2022/06/02 06:04:45;;;;;;;;;;;;;;;19.42;78.01;96993.16;4248830;27;5729;-69
2022/06/02 06:06:55;;;;;;;;;;;;;;;19.57;77.52;96994.47;4247731;27;5810;-68
2022/06/02 06:09:04;;;;;;;;;;;;;;;19.70;77.58;96994.94;4248538;27;5741;-67
2022/06/02 06:11:19;;;;;;;;;;;;;;;19.82;77.15;97010.09;4248498;27;5765;-67
2022/06/02 06:13:45;;;;;;;;;;;;;;;19.91;76.88;97019.38;4248698;27;6440;-68
2022/06/02 06:16:00;;;;;;;;;;;;;;;20.00;76.68;97023.25;4248844;27;5709;-68
2022/06/02 06:18:19;;;;;;;;;;;;;;;20.11;76.78;97022.34;4248829;27;5669;-68
2022/06/02 06:20:40;;;;;;;;;;;;;;;20.23;76.67;97030.28;4249042;27;5641;-68
2022/06/02 06:23:05;;;;;;;;;;;;;;;20.32;75.98;97028.78;4249196;27;5708;-68
2022/06/02 06:25:22;;;;;;;;;;;;;;;20.41;76.11;97035.34;4248404;27;5712;-68
2022/06/02 06:27:34;;;;;;;;;;;;;;;20.48;75.80;97033.31;4248875;27;5701;-68
2022/06/02 06:29:52;;;;;;;;;;;;;;;20.56;75.68;97032.88;4248785;27;5650;-68
2022/06/02 06:32:05;;;;;;;;;;;;;;;20.62;75.31;97025.69;4248785;27;5731;-67
2022/06/02 06:34:19;;;;;;;;;;;;;;;20.74;75.34;97025.56;4248286;27;5779;-68
2022/06/02 06:36:47;;;;;;;;;;;;;;;20.83;74.71;97035.59;4248415;27;5650;-67
2022/06/02 06:39:03;;;;;;;;;;;;;;;20.85;74.55;97052.28;4248506;27;5654;-67
2022/06/02 06:41:32;;;;;;;;;;;;;;;20.90;74.24;97052.34;4245867;27;5642;-67
2022/06/02 06:43:54;;;;;;;;;;;;;;;21.05;74.08;97048.16;4248457;27;5662;-67
2022/06/02 06:46:06;;;;;;;;;;;;;;;21.18;74.00;97043.22;4248673;27;7098;-67
2022/06/02 06:48:14;;;;;;;;;;;;;;;21.29;73.61;97043.31;4248305;27;5654;-67
2022/06/02 06:50:21;;;;;;;;;;;;;;;21.39;73.39;97059.56;4243461;27;5713;-67
2022/06/02 06:52:51;;;;;;;;;;;;;;;21.41;73.38;97068.19;4236962;28;5751;-67
2022/06/02 06:55:02;;;;;;;;;;;;;;;21.45;73.20;97064.72;4236649;27;5638;-67
2022/06/02 06:57:11;;;;;;;;;;;;;;;21.48;73.22;97053.44;4236878;28;5650;-67
2022/06/02 06:59:29;;;;;;;;;;;;;;;21.50;72.90;97045.94;4235336;28;5645;-69
2022/06/02 07:01:42;;;;;;;;;;;;;;;21.50;72.99;97045.94;4236686;27;5650;-67
2022/06/02 07:03:56;;;;;;;;;;;;;;;21.50;72.85;97045.94;4237104;28;5653;-67
2022/06/02 07:06:03;;;;;;;;;;;;;;;21.53;72.81;97043.81;4236713;27;5732;-67
2022/06/02 07:08:18;;;;;;;;;;;;;;;21.56;72.20;97044.09;4236804;28;5665;-67
2022/06/02 07:10:29;;;;;;;;;;;;;;;21.56;72.29;97049.50;4236220;28;5677;-68
2022/06/02 07:12:53;;;;;;;;;;;;;;;21.57;72.06;97047.59;4236708;28;5653;-67
2022/06/02 07:15:03;;;;;;;;;;;;;;;21.55;71.86;97041.69;4236759;28;5767;-68
2022/06/02 07:17:13;;;;;;;;;;;;;;;21.54;72.12;97035.50;4236316;27;5654;-67
2022/06/02 07:19:22;;;;;;;;;;;;;;;21.55;71.76;97036.31;4236620;28;5631;-68
2022/06/02 07:21:33;;;;;;;;;;;;;;;21.57;71.72;97024.22;4236444;27;6358;-68
2022/06/02 07:23:50;;;;;;;;;;;;;;;21.64;71.57;97018.63;4236494;27;5654;-68
2022/06/02 07:26:07;;;;;;;;;;;;;;;21.70;71.29;97031.84;4235845;28;5649;-68
2022/06/02 07:28:19;;;;;;;;;;;;;;;21.75;71.04;97033.78;4236555;28;5760;-67
2022/06/02 07:30:41;;;;;;;;;;;;;;;21.77;71.12;97037.81;4236434;27;5654;-67
2022/06/02 07:33:03;;;;;;;;;;;;;;;21.79;70.65;97024.09;4236409;28;5665;-67
2022/06/02 07:35:46;;;;;;;;;;;;;;;21.84;70.83;97018.75;4236290;27;5661;-67
2022/06/02 07:37:58;;;;;;;;;;;;;;;21.89;70.61;97020.66;4236128;27;5646;-67
2022/06/02 07:40:22;;;;;;;;;;;;;;;21.92;70.29;97020.16;4234699;27;5642;-67
2022/06/02 07:43:00;;;;;;;;;;;;;;;21.93;70.14;97027.97;4236493;28;6309;-68
2022/06/02 07:45:23;;;;;;;;;;;;;;;21.88;69.85;97036.00;4236022;28;5669;-67
2022/06/02 07:47:49;;;;;;;;;;;;;;;21.83;70.33;97038.66;4234996;28;5109;-68
2022/06/02 07:49:58;;;;;;;;;;;;;;;21.83;69.82;97035.16;4235588;27;5751;-68
2022/06/02 07:52:09;;;;;;;;;;;;;;;21.81;70.12;97030.03;4236248;28;5546;-67
2022/06/02 07:54:25;;;;;;;;;;;;;;;21.75;69.99;97037.28;4235866;27;5713;-67
2022/06/02 07:56:39;;;;;;;;;;;;;;;21.71;69.70;97032.66;4235520;27;5630;-68
2022/06/02 07:58:57;;;;;;;;;;;;;;;21.64;69.71;97029.38;4234748;28;5852;-67
2022/06/02 08:01:07;;;;;;;;;;;;;;;21.59;69.62;97021.25;4235670;27;5718;-69
2022/06/02 08:03:34;;;;;;;;;;;;;;;21.55;69.14;97025.53;4235048;27;5791;-68
2022/06/02 08:05:45;;;;;;;;;;;;;;;21.50;69.72;97018.22;4235702;27;5649;-67
2022/06/02 08:07:53;;;;;;;;;;;;;;;21.48;69.32;97017.69;4235966;27;5654;-68
2022/06/02 08:10:07;;;;;;;;;;;;;;;21.45;69.39;97010.94;4235442;27;5642;-67
2022/06/02 08:12:19;;;;;;;;;;;;;;;21.44;68.90;97009.31;4235803;28;5661;-68
2022/06/02 08:14:31;;;;;;;;;;;;;;;21.45;68.92;97012.81;4235747;28;5662;-67
2022/06/02 08:16:54;;;;;;;;;;;;;;;21.44;69.20;97014.69;4235495;28;5654;-67
2022/06/02 08:19:12;;;;;;;;;;;;;;;21.48;69.06;97021.19;4235708;28;5725;-68
2022/06/02 08:21:31;;;;;;;;;;;;;;;21.49;68.90;97016.59;4235462;28;5634;-68
2022/06/02 08:23:54;;;;;;;;;;;;;;;21.49;68.54;97017.41;4234312;28;5646;-68
2022/06/02 08:26:08;;;;;;;;;;;;;;;21.47;68.84;97019.56;4234002;28;5646;-69
2022/06/02 08:28:28;;;;;;;;;;;;;;;21.45;68.73;97027.06;4235312;27;5814;-67
2022/06/02 08:30:44;;;;;;;;;;;;;;;21.43;68.39;97034.59;4235297;28;5830;-68
2022/06/02 08:33:06;;;;;;;;;;;;;;;21.41;68.31;97031.34;4235188;28;5654;-68
2022/06/02 08:35:20;;;;;;;;;;;;;;;21.39;68.52;97033.47;4235414;28;5768;-67
2022/06/02 08:37:33;;;;;;;;;;;;;;;21.39;68.51;97028.09;4235269;27;5741;-68
2022/06/02 08:40:17;;;;;;;;;;;;;;;21.39;68.31;97033.47;4232616;27;5746;-68
2022/06/02 08:43:00;;;;;;;;;;;;;;;21.43;68.01;97031.91;4220303;27;6365;-68
2022/06/02 08:45:49;;;;;;;;;;;;;;;21.47;67.51;97030.31;4218055;28;5690;-68
2022/06/02 08:48:46;;;;;;;;;;;;;;;21.47;67.83;97035.69;4218497;28;5675;-68
2022/06/02 08:51:23;;;;;;;;;;;;;;;21.44;67.84;97051.53;4199397;28;5678;-68
2022/06/02 08:54:03;;;;;;;;;;;;;;;21.45;67.67;97067.41;4199021;28;5671;-68
2022/06/02 08:56:53;;;;;;;;;;;;;;;21.46;67.67;97058.28;4199219;28;5702;-68
2022/06/02 08:59:34;;;;;;;;;;;;;;;21.48;67.61;97058.03;4189473;28;5706;-68
2022/06/02 09:02:00;;;;;;;;;;;;;;;21.46;67.79;97058.28;4199485;28;5758;-68
2022/06/02 09:04:37;;;;;;;;;;;;;;;21.49;67.70;97065.84;4199080;28;5682;-69
2022/06/02 09:07:01;;;;;;;;;;;;;;;21.50;67.42;97067.44;4199554;28;5698;-68
2022/06/02 09:10:10;;;;;;;;;;;;;;;21.56;67.31;97071.00;4198971;28;5686;-68
2022/06/02 09:12:38;;;;;;;;;;;;;;;21.57;67.48;97078.00;4165826;28;6430;-67
2022/06/02 09:15:07;;;;;;;;;;;;;;;21.58;67.35;97073.44;4165581;28;5900;-68
2022/06/02 09:17:27;;;;;;;;;;;;;;;21.58;67.04;97082.31;4158573;28;5725;-68
2022/06/02 09:19:49;;;;;;;;;;;;;;;21.58;67.36;97085.00;4165961;28;5721;-68
2022/06/02 09:22:05;;;;;;;;;;;;;;;21.60;67.04;97090.13;4166212;28;5745;-68
2022/06/02 09:24:26;;;;;;;;;;;;;;;21.60;67.20;97079.38;4165877;28;6433;-68
2022/06/02 09:26:42;;;;;;;;;;;;;;;21.61;67.24;97072.91;4182250;28;5824;-69
2022/06/02 09:29:07;;;;;;;;;;;;;;;21.69;66.67;97077.84;4182437;28;5744;-68
2022/06/02 09:31:39;;;;;;;;;;;;;;;21.74;66.39;97088.63;4179541;28;5805;-67
2022/06/02 09:34:30;;;;;;;;;;;;;;;21.77;66.71;97083.56;4182201;28;5745;-67
2022/06/02 09:37:10;;;;;;;;;;;;;;;21.78;66.35;97079.81;4182254;28;5168;-68
2022/06/02 09:39:29;;;;;;;;;;;;;;;21.81;66.27;97073.09;4179602;28;5761;-67
2022/06/02 09:41:48;;;;;;;;;;;;;;;21.88;65.90;97079.06;4181490;28;5817;-67
2022/06/02 09:44:11;;;;;;;;;;;;;;;21.90;66.15;97076.94;4206765;28;5663;-68
2022/06/02 09:47:03;;;;;;;;;;;;;;;21.94;65.51;97072.63;4216140;28;5925;-68
2022/06/02 09:49:43;;;;;;;;;;;;;;;21.94;65.80;97078.03;4217098;28;5785;-67
2022/06/02 09:51:55;;;;;;;;;;;;;;;21.93;65.42;97072.91;4217262;28;5688;-67
2022/06/02 09:54:29;;;;;;;;;;;;;;;21.90;65.27;97071.53;4217571;28;6341;-68
2022/06/02 09:59:38;;;;;;;;;;;;;;;21.99;65.22;97078.06;4216900;28;5762;-68
2022/06/02 10:01:58;;;;;;;;;;;;;;;22.07;64.92;97079.47;4217193;28;5663;-70
2022/06/02 10:04:25;;;;;;;;;;;;;;;22.13;64.54;97078.47;4217559;28;5663;-69
2022/06/02 10:07:20;;;;;;;;;;;;;;;22.25;64.28;97078.25;4216052;28;5795;-69
2022/06/02 10:09:34;;;;;;;;;;;;;;;22.36;63.83;97079.94;4204529;28;5679;-68
2022/06/02 10:11:51;;;;;;;;;;;;;;;22.45;63.56;97086.47;4217234;28;6341;-69
2022/06/02 10:14:27;;;;;;;;;;;;;;;22.50;63.24;97070.31;4217249;28;5935;-70
2022/06/02 10:16:59;;;;;;;;;;;;;;;22.51;63.28;97076.50;4217658;28;5670;-69
2022/06/02 10:19:27;;;;;;;;;;;;;;;22.56;63.16;97087.31;4217417;28;5746;-69
2022/06/02 10:21:47;;;;;;;;;;;;;;;22.60;63.08;97080.31;4215399;28;5750;-68
2022/06/02 10:24:15;;;;;;;;;;;;;;;22.68;62.99;97082.53;4216913;28;5668;-69
2022/06/02 10:26:29;;;;;;;;;;;;;;;22.78;63.00;97082.56;4219073;28;5659;-68
2022/06/02 10:29:22;;;;;;;;;;;;;;;22.83;62.66;97076.38;4220396;28;5714;-69
2022/06/02 10:32:18;;;;;;;;;;;;;;;22.84;62.06;97076.13;4220274;28;5758;-69
2022/06/02 10:35:05;;;;;;;;;;;;;;;22.84;62.32;97081.53;4165304;28;5794;-68
2022/06/02 10:37:32;;;;;;;;;;;;;;;22.86;62.37;97073.16;4168719;28;5770;-68
2022/06/02 10:40:13;;;;;;;;;;;;;;;22.86;61.90;97062.38;4167977;28;5782;-69
2022/06/02 10:42:36;;;;;;;;;;;;;;;22.86;62.07;97057.00;4168361;28;5833;-68
2022/06/02 10:45:18;;;;;;;;;;;;;;;22.88;61.74;97057.56;4168242;28;5774;-69
2022/06/02 10:48:14;;;;;;;;;;;;;;;22.89;61.54;97045.72;4168165;28;5775;-69
2022/06/02 10:50:37;;;;;;;;;;;;;;;22.93;61.63;97041.41;4167774;28;5746;-69
2022/06/02 10:53:15;;;;;;;;;;;;;;;22.97;61.12;97036.28;4151706;28;5776;-69
2022/06/02 10:55:56;;;;;;;;;;;;;;;22.98;61.36;97037.88;4167303;28;5758;-69
2022/06/02 10:58:25;;;;;;;;;;;;;;;22.98;61.46;97025.22;4168107;28;5750;-69
2022/06/02 11:00:59;;;;;;;;;;;;;;;22.97;61.21;97018.22;4168017;28;5765;-69
2022/06/02 11:03:38;;;;;;;;;;;;;;;23.00;61.08;97020.41;4168276;28;5866;-70
2022/06/02 11:06:29;;;;;;;;;;;;;;;23.01;61.04;97016.63;4178270;28;5679;-70
2022/06/02 11:09:03;;;;;;;;;;;;;;;22.99;61.00;97024.16;4167763;28;5885;-69
2022/06/02 11:11:25;;;;;;;;;;;;;;;22.95;61.22;97037.34;4167357;28;5758;-69
2022/06/02 11:13:57;;;;;;;;;;;;;;;22.95;60.97;97039.25;4168147;28;5758;-69
2022/06/02 11:16:43;;;;;;;;;;;;;;;22.95;60.70;97041.94;4167951;28;5787;-69
2022/06/02 11:19:34;;;;;;;;;;;;;;;22.97;60.95;97036.28;4167669;28;5751;-69
2022/06/02 11:22:13;;;;;;;;;;;;;;;22.92;60.65;97029.81;4167758;28;5822;-70
2022/06/02 11:25:02;;;;;;;;;;;;;;;22.87;60.86;97020.88;4151179;28;5787;-69
2022/06/02 11:27:29;;;;;;;;;;;;;;;22.83;61.20;97009.00;4167825;28;5769;-69
2022/06/02 11:29:57;;;;;;;;;;;;;;;22.80;60.88;97009.53;4167532;28;5766;-69
2022/06/02 11:32:13;;;;;;;;;;;;;;;22.76;60.83;97003.84;4167725;28;5766;-69
2022/06/02 11:34:32;;;;;;;;;;;;;;;22.74;60.79;97000.59;4167692;28;5807;-69
2022/06/02 11:36:58;;;;;;;;;;;;;;;22.73;61.02;96993.59;4167313;28;5755;-69
2022/06/02 11:39:33;;;;;;;;;;;;;;;22.71;61.03;97006.53;4159294;28;5914;-69
2022/06/02 11:41:44;;;;;;;;;;;;;;;22.71;60.61;97011.91;4170800;28;5745;-68
2022/06/02 11:44:03;;;;;;;;;;;;;;;22.72;60.79;97001.94;4227199;28;5744;-69
2022/06/02 11:46:42;;;;;;;;;;;;;;;22.71;60.75;96989.56;4224895;28;5649;-69
2022/06/02 11:49:05;;;;;;;;;;;;;;;22.71;60.77;96989.56;4218817;28;5706;-68
2022/06/02 11:51:51;;;;;;;;;;;;;;;22.69;60.13;96997.09;4219130;28;5926;-69
2022/06/02 11:54:23;;;;;;;;;;;;;;;22.67;60.11;96995.47;4217359;28;5659;-68
2022/06/02 11:56:39;;;;;;;;;;;;;;;22.67;60.13;96995.47;4223470;28;5665;-68
2022/06/02 11:59:26;;;;;;;;;;;;;;;22.68;60.24;96985.50;4220707;28;6357;-69
2022/06/02 12:01:47;;;;;;;;;;;;;;;22.69;59.98;96984.44;4214977;28;6299;-68
2022/06/02 12:04:21;;;;;;;;;;;;;;;22.70;59.97;96988.75;4235472;27;5654;-68
2022/06/02 12:07:00;;;;;;;;;;;;;;;22.72;59.90;96978.50;4195699;28;5825;-69
2022/06/02 12:09:25;;;;;;;;;;;;;;;22.73;59.82;96976.63;4221260;27;5755;-68
2022/06/02 12:11:49;;;;;;;;;;;;;;;22.76;59.95;96973.38;4233849;27;6419;-68
2022/06/02 12:14:31;;;;;;;;;;;;;;;22.79;59.64;96956.69;4234060;27;5646;-68
2022/06/02 12:17:01;;;;;;;;;;;;;;;22.81;59.41;96957.25;4217263;28;5659;-68
2022/06/02 12:19:25;;;;;;;;;;;;;;;22.86;59.48;96954.56;4226915;28;5973;-69
2022/06/02 12:21:58;;;;;;;;;;;;;;;22.90;58.91;96944.88;4232434;28;7774;-68
2022/06/02 12:24:26;;;;;;;;;;;;;;;22.92;59.10;96940.03;4223755;28;5119;-68
2022/06/02 12:26:42;;;;;;;;;;;;;;;22.91;59.16;96941.13;4218797;28;5866;-69
2022/06/02 12:29:14;;;;;;;;;;;;;;;22.91;58.74;96931.13;4224724;27;5780;-68
2022/06/02 12:31:56;;;;;;;;;;;;;;;22.92;59.18;96930.06;4226722;28;5801;-68
2022/06/02 12:34:17;;;;;;;;;;;;;;;22.94;59.27;96924.41;4205731;28;5763;-68
2022/06/02 12:37:07;;;;;;;;;;;;;;;22.96;58.73;96916.84;4226217;28;5846;-68
2022/06/02 12:39:27;;;;;;;;;;;;;;;22.95;58.72;96916.03;4180099;28;5905;-69
2022/06/02 12:41:59;;;;;;;;;;;;;;;22.98;58.78;96921.97;4181323;28;6048;-69
2022/06/02 12:44:36;;;;;;;;;;;;;;;22.98;58.93;96925.47;4182002;28;5744;-68
2022/06/02 12:47:22;;;;;;;;;;;;;;;22.98;58.74;96930.06;4166067;28;5115;-68
2022/06/02 12:49:52;;;;;;;;;;;;;;;22.96;58.69;96924.94;4164967;28;5840;-68
2022/06/02 12:52:49;;;;;;;;;;;;;;;23.02;58.70;96920.38;4165999;28;5788;-68
2022/06/02 12:55:21;;;;;;;;;;;;;;;23.01;58.95;96919.56;4117481;28;5899;-68
2022/06/02 12:57:58;;;;;;;;;;;;;;;22.96;58.79;96922.22;4119884;28;5860;-68
2022/06/02 13:00:32;;;;;;;;;;;;;;;22.97;58.62;96917.66;4133611;28;5787;-68
2022/06/02 13:03:05;;;;;;;;;;;;;;;23.02;58.50;96912.28;4132238;28;5872;-68
2022/06/02 13:05:40;;;;;;;;;;;;;;;23.03;58.83;96903.91;4107384;28;5805;-68
2022/06/02 13:08:31;;;;;;;;;;;;;;;23.07;58.60;96904.97;4115941;28;6513;-69
2022/06/02 13:11:10;;;;;;;;;;;;;;;23.11;58.42;96914.16;4105771;28;5804;-68
2022/06/02 13:13:51;;;;;;;;;;;;;;;23.12;58.43;96910.41;4123160;28;5931;-69
2022/06/02 13:16:23;;;;;;;;;;;;;;;23.13;58.69;96906.63;4137419;28;5851;-69
2022/06/02 13:19:08;;;;;;;;;;;;;;;23.13;58.28;96903.91;4150709;28;5783;-68
2022/06/02 13:21:40;;;;;;;;;;;;;;;23.14;58.29;96899.34;4160569;28;5761;-69
2022/06/02 13:24:29;;;;;;;;;;;;;;;23.18;58.26;96895.00;4153089;28;5786;-68
2022/06/02 13:26:58;;;;;;;;;;;;;;;23.22;58.20;96888.81;4205210;28;5654;-69
2022/06/02 13:29:29;;;;;;;;;;;;;;;23.26;58.34;96886.38;4226768;28;5669;-68
2022/06/02 13:32:14;;;;;;;;;;;;;;;23.30;58.34;96884.75;4225838;28;5678;-68
2022/06/02 13:34:46;;;;;;;;;;;;;;;23.34;58.13;96888.53;4232689;27;5706;-68
2022/06/02 13:37:36;;;;;;;;;;;;;;;23.37;57.96;96885.28;4225278;28;5637;-69
2022/06/02 13:40:20;;;;;;;;;;;;;;;23.39;57.89;96876.91;4145080;28;5744;-68
2022/06/02 13:42:49;;;;;;;;;;;;;;;23.42;57.79;96879.06;4063070;29;6584;-68
2022/06/02 13:45:23;;;;;;;;;;;;;;;23.44;57.81;96880.41;4068311;29;5870;-68
2022/06/02 13:47:43;;;;;;;;;;;;;;;23.49;57.37;96882.28;4052295;29;6004;-68
2022/06/02 13:53:32;;;;;;;;;;;;;;;23.58;57.28;96877.16;4044861;29;6594;-69
2022/06/02 14:01:02;;;;;;;;;;;;;;;23.61;57.59;96872.03;4249849;27;8119;-68
2022/06/02 14:03:38;;;;;;;;;;;;;;;23.62;57.41;96873.66;4248027;27;5654;-68
2022/06/02 14:05:53;;;;;;;;;;;;;;;23.63;57.74;96866.34;4238190;27;5728;-68
2022/06/02 14:08:16;;;;;;;;;;;;;;;23.62;57.36;96857.44;4248677;27;5649;-68
2022/06/02 14:10:30;;;;;;;;;;;;;;;23.64;57.59;96857.19;4218692;27;5693;-68
2022/06/02 14:12:59;;;;;;;;;;;;;;;23.64;57.16;96857.97;4243116;27;5639;-68
2022/06/02 14:15:53;;;;;;;;;;;;;;;23.65;57.21;96859.59;4236692;27;5736;-68
2022/06/02 14:18:23;;;;;;;;;;;;;;;23.66;57.02;96869.31;4183143;28;6365;-68
2022/06/02 14:20:37;;;;;;;;;;;;;;;23.66;56.77;96853.13;4203600;28;5649;-68
2022/06/02 14:22:50;;;;;;;;;;;;;;;23.67;56.84;96865.56;4200168;28;5672;-68
2022/06/02 14:25:02;;;;;;;;;;;;;;;23.70;56.42;96872.28;4196206;28;5684;-68
2022/06/02 14:27:17;;;;;;;;;;;;;;;23.71;56.39;96877.41;4180321;28;5087;-68
2022/06/02 14:29:40;;;;;;;;;;;;;;;23.73;56.25;96877.94;4203278;28;5748;-68
2022/06/02 14:31:56;;;;;;;;;;;;;;;23.72;56.68;96886.31;4199356;28;5847;-68
2022/06/02 14:34:09;;;;;;;;;;;;;;;23.71;56.42;96885.50;4197409;28;5852;-68
2022/06/02 14:36:20;;;;;;;;;;;;;;;23.73;56.45;96888.72;4201235;28;5678;-68
2022/06/02 14:38:44;;;;;;;;;;;;;;;23.75;56.10;96888.44;4200993;28;5093;-68
2022/06/02 14:40:53;;;;;;;;;;;;;;;23.76;56.18;96888.16;4207602;28;5740;-68
2022/06/02 14:43:23;;;;;;;;;;;;;;;23.77;55.89;96889.78;4205185;28;5729;-68
2022/06/02 14:45:39;;;;;;;;;;;;;;;23.77;55.74;96884.38;4179557;28;5778;-68
2022/06/02 14:47:51;;;;;;;;;;;;;;;23.81;55.82;96882.78;4199996;28;6083;-68
2022/06/02 14:50:27;;;;;;;;;;;;;;;23.87;55.53;96880.84;4197167;28;5802;-68
2022/06/02 14:52:53;;;;;;;;;;;;;;;23.93;55.16;96884.34;4211734;28;5661;-68
2022/06/02 14:55:10;;;;;;;;;;;;;;;23.96;55.03;96876.50;4237746;27;5837;-68
2022/06/02 14:57:28;;;;;;;;;;;;;;;23.95;54.98;96884.88;4242867;27;5653;-68
2022/06/02 14:59:52;;;;;;;;;;;;;;;23.92;55.25;96875.44;4239993;27;6209;-68
2022/06/02 15:02:06;;;;;;;;;;;;;;;23.93;55.36;96868.16;4237965;27;5829;-68
2022/06/02 15:04:36;;;;;;;;;;;;;;;23.98;55.27;96876.22;4237335;27;5760;-68
2022/06/02 15:07:04;;;;;;;;;;;;;;;24.00;54.87;96872.16;4240767;27;5751;-68
2022/06/02 15:09:24;;;;;;;;;;;;;;;24.02;55.04;96874.59;4243613;27;5749;-67
2022/06/02 15:11:46;;;;;;;;;;;;;;;24.00;54.81;96865.94;4236638;27;5778;-71
2022/06/02 15:13:56;;;;;;;;;;;;;;;23.99;55.24;96850.81;4233866;28;5855;-69
2022/06/02 15:16:17;;;;;;;;;;;;;;;23.98;54.73;96854.59;4227913;28;5752;-69
2022/06/02 15:18:55;;;;;;;;;;;;;;;23.98;54.97;96858.13;4229915;28;6482;-69
2022/06/02 15:21:26;;;;;;;;;;;;;;;23.98;55.15;96846.50;4232556;28;5847;-69
2022/06/02 15:24:07;;;;;;;;;;;;;;;23.99;55.18;96840.03;4232634;28;5889;-70
2022/06/02 15:26:40;;;;;;;;;;;;;;;23.97;54.80;96842.19;4231085;28;5715;-69
2022/06/02 15:29:36;;;;;;;;;;;;;;;23.92;55.00;96834.94;4231629;28;5805;-69
2022/06/02 15:31:54;;;;;;;;;;;;;;;23.92;55.38;96834.94;4186456;28;5805;-69
2022/06/02 15:34:39;;;;;;;;;;;;;;;23.95;54.89;96831.69;4193499;28;5753;-69
2022/06/02 15:37:18;;;;;;;;;;;;;;;23.96;55.13;96829.78;4188712;28;5746;-69
2022/06/02 15:39:53;;;;;;;;;;;;;;;23.94;54.88;96823.88;4196472;28;5125;-69
2022/06/02 15:42:22;;;;;;;;;;;;;;;23.93;54.94;96833.06;4138254;28;5843;-69
2022/06/02 15:44:58;;;;;;;;;;;;;;;23.91;55.04;96819.03;4146285;28;5854;-69
2022/06/02 15:47:35;;;;;;;;;;;;;;;23.90;54.79;96822.78;4147826;28;5912;-69
2022/06/02 15:50:17;;;;;;;;;;;;;;;23.93;54.98;96827.66;4145184;28;5907;-69
2022/06/02 15:52:59;;;;;;;;;;;;;;;23.98;55.04;96833.81;4139887;28;5884;-66
2022/06/02 15:55:33;;;;;;;;;;;;;;;24.02;55.04;96834.91;4147973;28;5971;-67
2022/06/02 15:58:03;;;;;;;;;;;;;;;24.05;54.97;96830.81;4133276;28;5907;-69
2022/06/02 16:00:22;;;;;;;;;;;;;;;24.05;55.04;96820.03;4147704;28;5872;-66
2022/06/02 16:03:12;;;;;;;;;;;;;;;24.05;54.92;96825.44;4161796;28;5745;-66
2022/06/02 16:05:48;;;;;;;;;;;;;;;24.03;54.66;96822.19;4180750;28;5829;-67
2022/06/02 16:08:29;;;;;;;;;;;;;;;24.01;54.54;96821.66;4180372;28;5868;-68
2022/06/02 16:11:17;;;;;;;;;;;;;;;23.98;55.05;96817.63;4183316;28;5905;-68
2022/06/02 16:14:04;;;;;;;;;;;;;;;23.95;54.76;96815.47;4180384;28;5853;-66
2022/06/02 16:16:45;;;;;;;;;;;;;;;23.99;54.66;96810.31;4180320;28;5828;-68
2022/06/02 16:19:45;;;;;;;;;;;;;;;24.02;54.62;96802.50;4186234;28;5774;-67
2022/06/02 16:22:09;;;;;;;;;;;;;;;24.01;54.40;96791.94;4198838;28;5741;-66
2022/06/02 16:24:50;;;;;;;;;;;;;;;24.01;54.70;96797.34;4201444;28;5761;-67
2022/06/02 16:27:15;;;;;;;;;;;;;;;24.00;54.33;96796.53;4197541;28;5804;-68
2022/06/02 16:29:56;;;;;;;;;;;;;;;23.99;54.46;96800.31;4200875;28;6458;-69
2022/06/02 16:32:14;;;;;;;;;;;;;;;23.99;54.72;96804.91;4180829;28;5783;-69
2022/06/02 16:34:26;;;;;;;;;;;;;;;24.01;54.84;96805.44;4200391;28;5753;-71
2022/06/02 16:36:48;;;;;;;;;;;;;;;24.01;54.54;96817.09;4204504;28;5821;-68
2022/06/02 16:38:57;;;;;;;;;;;;;;;24.03;54.78;96825.72;4196292;28;5842;-69
2022/06/02 16:41:17;;;;;;;;;;;;;;;24.06;54.73;96837.84;4210672;28;5833;-69
2022/06/02 16:43:47;;;;;;;;;;;;;;;24.09;54.38;96837.28;4213459;28;5767;-70
2022/06/02 16:46:17;;;;;;;;;;;;;;;24.10;54.62;96837.00;4206837;28;5746;-69
2022/06/02 16:48:47;;;;;;;;;;;;;;;24.14;54.23;96844.56;4209185;28;5817;-67
2022/06/02 16:51:08;;;;;;;;;;;;;;;24.13;54.43;96843.75;4203222;28;5778;-68
2022/06/02 16:55:56;;;;;;;;;;;;;;;24.12;54.77;96844.81;4205984;28;5774;-71
2022/06/02 16:58:31;;;;;;;;;;;;;;;24.10;54.35;96838.88;4226486;28;5773;-71
2022/06/02 17:00:42;;;;;;;;;;;;;;;24.07;54.55;96825.94;4232027;28;5821;-67
2022/06/02 17:03:16;;;;;;;;;;;;;;;24.07;54.44;96817.84;4232276;28;5740;-68
2022/06/02 17:05:39;;;;;;;;;;;;;;;24.08;54.69;96819.47;4232307;27;5752;-70
2022/06/02 17:08:09;;;;;;;;;;;;;;;24.08;54.80;96836.47;4226186;28;5797;-67
2022/06/02 17:10:25;;;;;;;;;;;;;;;24.07;54.85;96834.84;4221601;28;5812;-69
2022/06/02 17:12:40;;;;;;;;;;;;;;;24.04;54.52;96840.81;4232152;28;6329;-69
2022/06/02 17:14:55;;;;;;;;;;;;;;;24.03;54.93;96857.31;4231925;28;5818;-70
2022/06/02 17:17:19;;;;;;;;;;;;;;;24.02;54.59;96870.00;4231807;28;5748;-68
2022/06/02 17:19:52;;;;;;;;;;;;;;;24.00;54.64;96899.16;4232078;28;5772;-68
2022/06/02 17:22:13;;;;;;;;;;;;;;;23.99;54.61;96912.94;4231831;28;5851;-68
2022/06/02 17:24:39;;;;;;;;;;;;;;;23.96;54.83;96910.78;4231789;28;5736;-68
2022/06/02 17:27:03;;;;;;;;;;;;;;;23.96;54.68;96913.50;4231736;28;6444;-67
2022/06/02 17:29:23;;;;;;;;;;;;;;;23.94;54.88;96907.56;4231793;28;6452;-67
2022/06/02 17:31:45;;;;;;;;;;;;;;;23.93;54.70;96900.53;4232127;28;5751;-67
2022/06/02 17:33:52;;;;;;;;;;;;;;;23.91;54.78;96906.22;4220623;28;5762;-69
2022/06/02 17:36:27;;;;;;;;;;;;;;;23.92;54.90;96904.34;4220027;28;5745;-69
2022/06/02 17:38:58;;;;;;;;;;;;;;;23.90;54.83;96892.97;4225213;28;5777;-71
2022/06/02 17:41:18;;;;;;;;;;;;;;;23.89;54.64;96875.97;4205132;27;5837;-70
2022/06/02 17:43:38;;;;;;;;;;;;;;;23.88;54.64;96874.34;4218323;28;5822;-69
2022/06/02 17:46:04;;;;;;;;;;;;;;;23.87;55.06;96888.13;4226020;28;5740;-67
2022/06/02 17:48:46;;;;;;;;;;;;;;;23.86;54.50;96873.84;4227775;28;5830;-71
2022/06/02 17:51:00;;;;;;;;;;;;;;;23.86;54.67;96876.53;4213953;28;5781;-69
2022/06/02 17:53:18;;;;;;;;;;;;;;;23.84;54.87;96876.00;4214825;28;5750;-72
2022/06/02 17:55:42;;;;;;;;;;;;;;;23.84;54.97;96878.69;4218050;28;5768;-68
2022/06/02 17:58:17;;;;;;;;;;;;;;;23.83;54.82;96874.38;4230221;28;6062;-70
2022/06/02 18:00:27;;;;;;;;;;;;;;;23.81;54.88;96877.38;4231516;28;5892;-71
2022/06/02 18:02:40;;;;;;;;;;;;;;;23.82;55.12;96864.69;4231439;28;6347;-68
2022/06/02 18:05:15;;;;;;;;;;;;;;;23.82;54.97;96864.69;4231573;28;5745;-68
2022/06/02 18:07:39;;;;;;;;;;;;;;;23.81;54.84;96863.88;4231539;28;5893;-67
2022/06/02 18:09:55;;;;;;;;;;;;;;;23.79;54.64;96857.94;4231431;27;5752;-68
2022/06/02 18:12:36;;;;;;;;;;;;;;;23.78;54.54;96864.44;4231171;28;5761;-67
2022/06/02 18:14:56;;;;;;;;;;;;;;;23.76;54.75;96866.56;4208330;28;5693;-71
2022/06/02 18:17:38;;;;;;;;;;;;;;;23.74;55.00;96857.94;4217755;28;5732;-67
2022/06/02 18:19:48;;;;;;;;;;;;;;;23.70;55.05;96851.50;4217702;28;5768;-67
2022/06/02 18:22:16;;;;;;;;;;;;;;;23.68;54.78;96842.06;4225419;27;5853;-68
2022/06/02 18:24:36;;;;;;;;;;;;;;;23.65;54.98;96838.00;4216896;28;5774;-67
2022/06/02 18:27:02;;;;;;;;;;;;;;;23.65;54.86;96839.91;4214309;27;5758;-68
2022/06/02 18:29:30;;;;;;;;;;;;;;;23.63;54.75;96844.75;4228835;28;5763;-74
2022/06/02 18:32:23;;;;;;;;;;;;;;;23.61;54.85;96863.94;4223642;27;5708;-70
2022/06/02 18:34:39;;;;;;;;;;;;;;;23.59;54.87;96870.69;4165622;28;5676;-69
2022/06/02 18:37:02;;;;;;;;;;;;;;;23.59;54.83;96876.09;4174294;28;5732;-71
2022/06/02 18:39:42;;;;;;;;;;;;;;;23.57;55.06;96868.25;4172759;28;5718;-72
2022/06/02 18:42:09;;;;;;;;;;;;;;;23.57;54.54;96848.56;4156500;28;5883;-74
2022/06/02 18:44:59;;;;;;;;;;;;;;;23.58;55.00;96874.44;4174475;28;5823;-76
2022/06/02 18:47:36;;;;;;;;;;;;;;;23.57;55.14;96872.84;4112980;28;5847;-73
2022/06/02 18:50:13;;;;;;;;;;;;;;;23.56;55.11;96882.81;4103255;28;5984;-71
2022/06/02 18:53:06;;;;;;;;;;;;;;;23.55;55.17;96870.38;4109094;28;6020;-71
2022/06/02 18:55:52;;;;;;;;;;;;;;;23.54;55.04;96852.56;4036649;29;5935;-69
2022/06/02 18:58:39;;;;;;;;;;;;;;;23.53;55.17;96856.38;4007480;29;6064;-71
2022/06/02 19:01:00;;;;;;;;;;;;;;;23.51;55.09;96837.75;4004298;29;6107;-71